Terminal Aerodrome Forecast
Issued by NWS St Louis, MO

Home | Current Version | Previous Version | Text Only | Print | Product List | Glossary On
Versions: 1 2 3 4 5 6 7 8 9 10 11 12 13 14 15 16 17 18 19 20 21 22 23
698
FTUS43 KLSX 260938 AAA
TAFSTL
TAF AMD
KSTL 260938Z 2610/2712 VRB03KT 6SM BR BKN035
      TEMPO 2610/2612 5SM BR BKN015
     FM261300 06004KT P6SM BKN035=

USA.gov is the U.S. government's official web portal to all federal, state and local government web resources and services.